Time;durP1;ratioP1;P1;durP2;ratioP2;P2;SDS_P1;SDS_P2;PMS_P1;PMS_P2;Temp;Humidity;BMP_temperature;BMP_pressure;BME280_temperature;BME280_humidity;BME280_pressure;Samples;Min_cycle;Max_cycle;Signal;HPM_P1;HPM_P2
2023/01/26 00:02:13;;;;;;;27.40;17.73;;;;;;;4.42;77.53;101713.09;12793954;22;96562;-81
2023/01/26 00:07:16;;;;;;;27.48;18.02;;;;;;;4.53;77.07;101704.50;12793398;22;96474;-81
2023/01/26 00:12:21;;;;;;;26.73;17.42;;;;;;;4.68;76.05;101706.38;12793330;22;96552;-81
2023/01/26 00:17:27;;;;;;;27.63;17.67;;;;;;;4.54;77.19;101705.38;12793181;22;96586;-81
2023/01/26 00:22:30;;;;;;;26.42;17.35;;;;;;;4.54;76.61;101708.00;12793856;22;96565;-81
2023/01/26 00:27:35;;;;;;;23.48;16.30;;;;;;;4.63;75.59;101694.16;12793201;22;97045;-81
2023/01/26 00:32:38;;;;;;;24.40;16.17;;;;;;;4.67;75.42;101680.28;12793037;22;96831;-81
2023/01/26 00:37:42;;;;;;;27.73;18.00;;;;;;;4.56;75.37;101654.13;12791679;22;96940;-81
2023/01/26 00:42:47;;;;;;;26.65;16.70;;;;;;;4.45;76.39;101661.88;12792713;22;97111;-80
2023/01/26 00:47:50;;;;;;;26.23;17.40;;;;;;;4.40;77.15;101657.47;12794456;22;97043;-80
2023/01/26 00:52:53;;;;;;;29.55;17.98;;;;;;;4.42;76.67;101661.88;12794841;22;97053;-80
2023/01/26 00:57:58;;;;;;;28.52;17.55;;;;;;;4.43;76.38;101666.19;12795872;22;97067;-80
2023/01/26 01:03:02;;;;;;;24.57;16.83;;;;;;;4.53;75.84;101670.63;12795484;22;96826;-80
2023/01/26 01:08:05;;;;;;;24.52;17.00;;;;;;;4.64;75.32;101672.44;12795274;22;96559;-80
2023/01/26 01:13:10;;;;;;;24.92;17.02;;;;;;;4.72;74.76;101662.94;12796049;22;96529;-80
2023/01/26 01:18:13;;;;;;;24.33;17.20;;;;;;;4.78;74.71;101660.34;12795355;22;96763;-80
2023/01/26 01:23:16;;;;;;;23.45;16.15;;;;;;;4.74;74.28;101669.88;12795126;22;96488;-80
2023/01/26 01:28:21;;;;;;;24.08;16.83;;;;;;;4.59;75.09;101663.69;12793841;22;96554;-80
2023/01/26 01:33:25;;;;;;;24.73;16.73;;;;;;;4.48;75.91;101671.47;12795205;22;96597;-80
2023/01/26 01:38:28;;;;;;;25.60;17.30;;;;;;;4.59;75.38;101680.22;12794969;22;96482;-80
2023/01/26 01:43:33;;;;;;;26.13;16.88;;;;;;;4.54;75.85;101676.72;12794682;22;96960;-81
2023/01/26 01:48:44;;;;;;;25.95;17.38;;;;;;;4.50;75.43;101665.38;12794364;22;96501;-80
2023/01/26 01:53:51;;;;;;;24.30;16.95;;;;;;;4.60;75.08;101661.13;12795350;22;96536;-80
2023/01/26 01:58:59;;;;;;;24.23;16.77;;;;;;;4.48;74.86;101661.03;12795251;22;96559;-81
2023/01/26 02:04:05;;;;;;;27.52;16.83;;;;;;;4.45;75.50;101648.84;12795659;22;96648;-81
2023/01/26 02:10:17;;;;;;;26.88;18.00;;;;;;;4.42;75.11;101646.22;12794702;22;96613;-81
2023/01/26 02:14:35;;;;;;;24.73;16.27;;;;;;;4.48;75.44;101664.50;12795007;22;96783;-81
2023/01/26 02:19:49;;;;;;;23.53;16.07;;;;;;;4.48;74.90;101667.09;12793085;22;96658;-81
2023/01/26 02:24:56;;;;;;;23.90;17.08;;;;;;;4.41;75.36;101654.03;12794745;22;97211;-81
2023/01/26 02:30:02;;;;;;;29.08;17.70;;;;;;;4.48;75.23;101643.66;12794560;22;96604;-81
2023/01/26 02:35:06;;;;;;;26.20;17.10;;;;;;;4.51;74.78;101638.44;12794603;22;96610;-81
2023/01/26 02:40:17;;;;;;;25.35;16.60;;;;;;;4.30;75.74;101640.03;12794730;22;96650;-81
2023/01/26 02:45:22;;;;;;;25.48;16.92;;;;;;;4.12;76.63;101634.66;12794351;22;96550;-81
2023/01/26 02:50:26;;;;;;;27.08;18.63;;;;;;;4.00;77.94;101640.66;12794458;22;96821;-81
2023/01/26 02:55:29;;;;;;;27.58;16.95;;;;;;;4.06;76.77;101625.09;12795257;22;96576;-81
2023/01/26 03:00:36;;;;;;;26.58;17.65;;;;;;;3.91;77.40;101611.06;12794848;22;96698;-80
2023/01/26 03:05:39;;;;;;;26.42;17.48;;;;;;;3.87;77.02;101599.75;12794717;22;97150;-80
2023/01/26 03:10:43;;;;;;;25.90;17.33;;;;;;;3.70;78.12;101582.25;12792235;22;97194;-81
2023/01/26 03:15:51;;;;;;;27.30;17.15;;;;;;;3.60;78.70;101581.25;12794074;22;96534;-80
2023/01/26 03:31:37;;;;;;;23.00;16.65;;;;;;;3.72;78.06;101577.94;12793827;22;96710;-80
2023/01/26 03:36:41;;;;;;;25.43;17.33;;;;;;;3.78;77.94;101568.44;12793738;22;96980;-81
2023/01/26 03:57:48;;;;;;;22.00;15.65;;;;;;;3.96;76.86;101560.75;12793558;22;96622;-80
2023/01/26 04:08:29;;;;;;;22.30;16.15;;;;;;;4.02;76.39;101539.09;12793785;22;96564;-80
2023/01/26 04:24:15;;;;;;;23.92;16.38;;;;;;;3.95;76.92;101526.91;12795790;22;96608;-81
2023/01/26 04:29:19;;;;;;;23.48;17.10;;;;;;;3.84;77.03;101525.97;12795955;22;97027;-81
2023/01/26 04:34:25;;;;;;;24.53;16.60;;;;;;;3.86;77.31;101522.50;12795232;22;96775;-81
2023/01/26 04:39:28;;;;;;;24.83;16.03;;;;;;;3.69;78.25;101507.59;12796705;22;96528;-80
2023/01/26 04:44:32;;;;;;;24.00;16.00;;;;;;;3.76;77.40;101496.38;12795924;22;96497;-80
2023/01/26 04:49:36;;;;;;;24.98;17.45;;;;;;;3.75;77.40;101498.13;12795482;22;96596;-80
2023/01/26 04:54:40;;;;;;;25.10;17.07;;;;;;;3.56;78.00;101509.25;12794308;22;97304;-80
2023/01/26 04:59:43;;;;;;;26.05;17.38;;;;;;;3.53;78.48;101511.81;12795638;22;97223;-80
2023/01/26 05:04:48;;;;;;;25.27;16.92;;;;;;;3.63;77.80;101497.16;12795128;22;96701;-80
2023/01/26 05:09:51;;;;;;;23.97;16.97;;;;;;;3.60;77.47;101505.78;12795010;22;96586;-80
2023/01/26 05:14:54;;;;;;;23.20;15.95;;;;;;;3.62;77.26;101506.69;12795335;22;96606;-80
2023/01/26 05:19:59;;;;;;;23.02;14.85;;;;;;;3.58;77.29;101488.44;12794646;22;96629;-80
2023/01/26 05:25:02;;;;;;;24.23;16.30;;;;;;;3.50;77.91;101492.69;12795338;22;96614;-80
2023/01/26 05:30:06;;;;;;;24.67;16.35;;;;;;;3.26;78.81;101494.22;12795932;22;96661;-80
2023/01/26 05:35:11;;;;;;;27.70;17.20;;;;;;;3.20;79.53;101488.97;12795259;22;96863;-80
2023/01/26 05:40:15;;;;;;;25.27;17.60;;;;;;;3.17;79.53;101494.13;12795258;22;96600;-80
2023/01/26 05:45:18;;;;;;;23.88;16.88;;;;;;;3.19;78.86;101483.75;12793642;22;97417;-80
2023/01/26 05:50:23;;;;;;;22.40;16.27;;;;;;;3.16;78.81;101491.53;12794611;22;96661;-80
2023/01/26 05:55:26;;;;;;;25.90;16.63;;;;;;;3.08;79.23;101488.84;12794915;22;96672;-80
2023/01/26 06:00:29;;;;;;;27.33;16.98;;;;;;;3.04;79.89;101486.19;12795071;22;96987;-80
2023/01/26 06:05:34;;;;;;;26.38;17.95;;;;;;;2.92;79.98;101480.88;12794175;22;96585;-81
2023/01/26 06:10:37;;;;;;;27.60;18.07;;;;;;;2.89;80.25;101473.03;12794868;22;96591;-80
2023/01/26 06:15:40;;;;;;;26.73;16.73;;;;;;;2.84;80.66;101462.59;12794303;22;96515;-80
2023/01/26 06:20:45;;;;;;;25.10;17.30;;;;;;;2.76;81.28;101465.97;12795321;22;96588;-80
2023/01/26 06:25:48;;;;;;;26.03;17.37;;;;;;;2.76;81.56;101433.06;12794795;22;97364;-80
2023/01/26 06:30:52;;;;;;;25.35;15.98;;;;;;;2.75;80.98;101438.25;12794375;22;96726;-79
2023/01/26 06:35:56;;;;;;;26.83;16.27;;;;;;;2.72;81.13;101435.59;12793155;22;96594;-79
2023/01/26 06:41:01;;;;;;;25.33;16.10;;;;;;;2.67;81.81;101438.16;12794603;22;96622;-80
2023/01/26 06:46:06;;;;;;;24.33;16.05;;;;;;;2.64;81.61;101443.31;12793839;22;96578;-80
2023/01/26 06:51:44;;;;;;;26.40;16.60;;;;;;;2.64;81.69;101416.47;12794047;22;96977;-80
2023/01/26 06:56:47;;;;;;;24.45;16.58;;;;;;;2.71;80.95;101434.75;12794667;22;96556;-79
2023/01/26 07:01:50;;;;;;;25.05;15.95;;;;;;;2.81;80.75;101433.09;12794401;22;96661;-79
2023/01/26 07:06:54;;;;;;;21.30;14.57;;;;;;;2.80;80.92;101429.63;12794156;22;96956;-80
2023/01/26 07:11:58;;;;;;;24.27;16.60;;;;;;;2.90;80.65;101428.88;12795346;22;96624;-79
2023/01/26 07:17:01;;;;;;;22.88;15.30;;;;;;;2.88;80.40;101451.38;12793828;22;96500;-79
2023/01/26 07:22:06;;;;;;;24.58;14.65;;;;;;;2.94;80.22;101440.19;12794150;22;96753;-79
2023/01/26 07:27:09;;;;;;;24.13;16.80;;;;;;;3.01;80.22;101448.03;12792823;22;97117;-79
2023/01/26 07:32:12;;;;;;;23.50;15.38;;;;;;;3.08;79.69;101442.03;12794452;22;96863;-79
2023/01/26 07:37:17;;;;;;;23.42;16.13;;;;;;;3.14;79.57;101438.63;12793862;22;96611;-80
2023/01/26 07:42:20;;;;;;;23.30;15.50;;;;;;;3.05;79.93;101431.63;12794137;22;96847;-79
2023/01/26 07:47:23;;;;;;;23.52;15.40;;;;;;;3.00;80.29;101427.22;12793473;22;97003;-80
2023/01/26 07:52:28;;;;;;;26.20;16.85;;;;;;;2.95;80.47;101450.59;12793729;22;97288;-80
2023/01/26 07:57:32;;;;;;;22.47;15.27;;;;;;;3.03;80.34;101459.31;12793646;22;96707;-79
2023/01/26 08:02:36;;;;;;;22.40;14.73;;;;;;;3.02;80.29;101455.00;12794880;22;96547;-80
2023/01/26 08:07:40;;;;;;;22.15;15.20;;;;;;;3.17;79.55;101436.03;12793832;22;96914;-80
2023/01/26 08:12:43;;;;;;;22.97;15.67;;;;;;;3.28;79.31;101440.50;12792588;22;96909;-80
2023/01/26 08:17:47;;;;;;;23.88;15.45;;;;;;;3.48;78.74;101425.03;12791883;22;96756;-79
2023/01/26 08:22:51;;;;;;;21.33;14.80;;;;;;;3.40;79.27;101437.13;12793002;22;96563;-80
2023/01/26 08:27:55;;;;;;;22.70;14.90;;;;;;;3.43;79.39;101426.72;12793647;22;96635;-80
2023/01/26 08:32:58;;;;;;;21.52;14.10;;;;;;;3.55;79.16;101419.03;12792363;22;96692;-80
2023/01/26 08:38:04;;;;;;;21.33;15.45;;;;;;;3.69;78.72;101406.97;12793166;22;96552;-80
2023/01/26 08:43:07;;;;;;;20.63;14.27;;;;;;;3.86;78.36;101415.75;12792916;22;96712;-80
2023/01/26 08:48:11;;;;;;;22.67;14.70;;;;;;;3.88;78.59;101437.47;12793194;22;97213;-80
2023/01/26 08:53:15;;;;;;;20.48;13.88;;;;;;;3.92;78.42;101430.53;12793376;22;96473;-80
2023/01/26 08:58:20;;;;;;;19.27;13.88;;;;;;;3.99;78.09;101427.13;12792704;22;96621;-80
2023/01/26 09:03:23;;;;;;;20.10;14.82;;;;;;;4.20;78.11;101443.72;12792212;22;96529;-80
2023/01/26 09:08:28;;;;;;;25.20;16.08;;;;;;;4.25;77.28;101439.44;12792147;22;96643;-80
2023/01/26 09:13:31;;;;;;;21.73;15.27;;;;;;;4.43;77.34;101449.03;12795265;22;96563;-80
2023/01/26 09:18:35;;;;;;;20.65;13.77;;;;;;;4.58;76.53;101449.13;12794669;22;96568;-80
2023/01/26 09:23:40;;;;;;;19.33;13.18;;;;;;;4.89;75.86;101418.78;12795209;22;96618;-80
2023/01/26 09:28:43;;;;;;;22.47;14.80;;;;;;;4.79;75.77;101415.28;12795228;22;96586;-80
2023/01/26 09:33:47;;;;;;;23.50;16.10;;;;;;;4.83;76.13;101410.91;12794651;22;96604;-81
2023/01/26 09:38:52;;;;;;;28.93;17.73;;;;;;;4.74;75.97;101409.16;12795239;22;96723;-81
2023/01/26 09:44:00;;;;;;;27.30;17.75;;;;;;;4.84;75.68;101410.94;12796458;22;96869;-81
2023/01/26 09:49:07;;;;;;;42.63;24.67;;;;;;;4.89;76.23;101408.34;12794360;22;96847;-81
2023/01/26 09:54:23;;;;;;;31.38;20.08;;;;;;;4.93;75.89;101404.88;12794807;22;96572;-81
2023/01/26 09:59:33;;;;;;;66.68;35.00;;;;;;;5.28;75.21;101384.88;12793541;22;96701;-81
2023/01/26 10:04:40;;;;;;;46.40;27.40;;;;;;;5.50;73.98;101379.63;12794986;22;96626;-81
2023/01/26 10:09:48;;;;;;;31.95;18.92;;;;;;;5.33;74.03;101376.19;12794607;22;96563;-81
2023/01/26 10:14:56;;;;;;;28.80;17.88;;;;;;;5.52;73.62;101364.84;12794718;22;97039;-81
2023/01/26 10:20:06;;;;;;;31.73;19.42;;;;;;;5.83;73.23;101355.19;12794456;22;96619;-81
2023/01/26 10:25:18;;;;;;;40.05;23.15;;;;;;;5.81;73.59;101356.09;12795035;22;97153;-81
2023/01/26 10:30:22;;;;;;;39.38;23.67;;;;;;;5.81;73.52;101364.81;12794318;22;97163;-81
2023/01/26 10:35:25;;;;;;;29.00;17.00;;;;;;;5.87;72.58;101345.63;12795479;22;96580;-81
2023/01/26 10:40:42;;;;;;;31.27;18.58;;;;;;;6.18;71.77;101349.84;12794750;22;96584;-81
2023/01/26 10:45:46;;;;;;;46.70;25.67;;;;;;;6.18;72.72;101347.22;12795104;22;96756;-81
2023/01/26 10:50:51;;;;;;;31.77;19.00;;;;;;;6.35;71.19;101341.06;12792937;22;96633;-81
2023/01/26 10:56:01;;;;;;;25.90;17.02;;;;;;;6.46;70.59;101331.41;12793980;22;96527;-81
2023/01/26 11:01:11;;;;;;;39.42;24.50;;;;;;;6.47;70.97;101333.13;12794563;22;96518;-81
2023/01/26 11:06:16;;;;;;;41.28;24.55;;;;;;;6.69;70.98;101319.06;12794169;22;96826;-81
2023/01/26 11:11:26;;;;;;;38.13;22.55;;;;;;;6.88;70.71;101304.13;12794385;22;96582;-81
2023/01/26 11:16:29;;;;;;;32.58;19.48;;;;;;;7.05;70.87;101304.84;12793879;22;96615;-81
2023/01/26 11:21:39;;;;;;;25.15;18.38;;;;;;;6.96;70.25;101302.31;12793844;22;96533;-81
2023/01/26 11:27:02;;;;;;;26.38;18.27;;;;;;;7.05;69.52;101290.91;12794991;22;96629;-81
2023/01/26 11:32:16;;;;;;;20.50;15.07;;;;;;;7.66;68.54;101269.34;12793409;22;96516;-81
2023/01/26 11:37:37;;;;;;;26.35;16.65;;;;;;;8.07;66.96;101249.56;12794134;22;96592;-81
2023/01/26 11:42:49;;;;;;;27.83;19.33;;;;;;;8.44;65.33;101228.06;12792946;22;96780;-82
2023/01/26 11:48:06;;;;;;;30.88;19.80;;;;;;;8.57;65.95;101218.22;12793883;22;96611;-82
2023/01/26 11:53:22;;;;;;;41.92;26.70;;;;;;;8.66;66.20;101231.19;12794021;22;96795;-81
2023/01/26 11:58:35;;;;;;;40.63;27.48;;;;;;;8.79;66.48;101222.25;12793701;22;96683;-81
2023/01/26 12:03:45;;;;;;;36.90;24.77;;;;;;;8.76;65.91;101224.91;12793615;22;96617;-81
2023/01/26 12:08:53;;;;;;;35.03;23.77;;;;;;;8.75;65.94;101210.94;12793589;22;96547;-81
2023/01/26 12:14:07;;;;;;;42.78;27.88;;;;;;;8.75;65.76;101189.94;12794268;22;96828;-81
2023/01/26 12:19:16;;;;;;;37.78;25.63;;;;;;;8.98;65.26;101179.03;12793368;22;96728;-81
2023/01/26 12:24:29;;;;;;;39.85;26.33;;;;;;;8.98;65.68;101163.28;12793417;22;97039;-81
2023/01/26 12:30:01;;;;;;;39.20;25.38;;;;;;;9.25;65.45;101146.16;12792897;22;96607;-81
2023/01/26 12:35:05;;;;;;;37.60;25.55;;;;;;;9.17;65.59;101129.66;12791618;22;96647;-81
2023/01/26 12:40:18;;;;;;;40.17;26.48;;;;;;;9.11;66.36;101107.88;12793186;22;96663;-81
2023/01/26 12:45:28;;;;;;;41.88;28.23;;;;;;;9.14;66.49;101093.81;12794925;22;96599;-81
2023/01/26 12:50:38;;;;;;;38.25;25.20;;;;;;;8.86;67.21;101101.38;12795108;22;96573;-81
2023/01/26 12:55:46;;;;;;;37.30;24.92;;;;;;;8.75;68.50;101107.72;12795418;22;96587;-81
2023/01/26 13:01:02;;;;;;;39.28;27.27;;;;;;;8.67;70.07;101104.41;12795635;22;96977;-79
2023/01/26 13:06:19;;;;;;;43.00;28.98;;;;;;;8.52;71.61;101086.28;12795468;22;96593;-80
2023/01/26 13:11:44;;;;;;;49.00;31.95;;;;;;;8.45;72.45;101067.19;12796265;22;96541;-80
2023/01/26 13:16:48;;;;;;;49.88;32.50;;;;;;;8.54;72.40;101050.41;12795077;22;96931;-81
2023/01/26 13:21:51;;;;;;;52.13;33.90;;;;;;;8.59;72.69;101065.16;12795337;22;96582;-81
2023/01/26 13:26:56;;;;;;;49.85;32.88;;;;;;;8.59;72.94;101041.56;12794158;22;96595;-82
2023/01/26 13:32:23;;;;;;;45.65;32.35;;;;;;;8.74;72.71;101032.53;12795243;22;96703;-81
2023/01/26 13:37:34;;;;;;;49.92;32.13;;;;;;;8.78;73.42;101023.69;12794986;22;96793;-81
2023/01/26 13:42:55;;;;;;;47.05;31.13;;;;;;;8.84;73.57;101010.47;12795240;22;96633;-81
2023/01/26 13:48:02;;;;;;;45.72;31.33;;;;;;;8.92;74.07;100975.28;12795373;22;97170;-81
2023/01/26 13:53:32;;;;;;;52.63;33.25;;;;;;;9.33;74.05;100957.78;12794525;22;96817;-81
2023/01/26 13:58:35;;;;;;;50.13;33.53;;;;;;;9.48;73.83;100965.28;12795290;22;96922;-82
2023/01/26 14:03:40;;;;;;;57.47;36.47;;;;;;;9.36;73.28;100965.59;12796031;22;96623;-81
2023/01/26 14:08:49;;;;;;;50.35;32.63;;;;;;;9.43;73.71;100948.78;12794869;22;96664;-81
2023/01/26 14:13:55;;;;;;;52.58;31.98;;;;;;;10.49;71.95;100924.00;12794864;22;96618;-81
2023/01/26 14:19:15;;;;;;;31.45;22.35;;;;;;;13.22;65.29;100919.91;12793387;22;96986;-81
2023/01/26 14:24:19;;;;;;;43.33;30.55;;;;;;;13.63;65.38;100927.88;12794637;22;96522;-82
2023/01/26 14:29:27;;;;;;;39.38;29.08;;;;;;;14.60;63.04;100918.34;12794552;22;97113;-82
2023/01/26 14:34:32;;;;;;;38.70;25.90;;;;;;;14.65;60.95;100911.06;12794977;22;96641;-80
2023/01/26 14:39:35;;;;;;;38.75;27.38;;;;;;;13.90;62.04;100906.50;12794708;22;96476;-80
2023/01/26 14:44:38;;;;;;;37.25;26.50;;;;;;;14.08;60.99;100889.81;12794176;22;96630;-82
2023/01/26 14:49:48;;;;;;;37.85;26.17;;;;;;;12.85;62.31;100894.06;12794997;22;96963;-82
2023/01/26 14:54:53;;;;;;;34.75;24.60;;;;;;;12.63;62.96;100886.97;12795188;22;96600;-81
2023/01/26 14:59:59;;;;;;;37.00;24.35;;;;;;;12.15;63.15;100881.75;12794807;22;96596;-81
2023/01/26 15:05:12;;;;;;;33.47;21.60;;;;;;;11.83;63.36;100889.91;12793773;22;96939;-81
2023/01/26 15:10:34;;;;;;;27.08;20.15;;;;;;;11.84;62.80;100868.75;12793081;22;96998;-81
2023/01/26 15:15:39;;;;;;;25.65;17.35;;;;;;;12.13;62.43;100859.84;12793709;22;96589;-81
2023/01/26 15:20:49;;;;;;;26.70;17.45;;;;;;;12.95;59.93;100865.47;12793942;22;96731;-81
2023/01/26 15:25:52;;;;;;;28.38;18.58;;;;;;;12.11;61.91;100885.41;12794205;22;96803;-81
2023/01/26 15:30:56;;;;;;;27.02;18.52;;;;;;;11.42;63.47;100882.56;12793980;22;96578;-81
2023/01/26 15:36:01;;;;;;;29.10;19.03;;;;;;;11.37;63.29;100883.56;12793868;22;96625;-81
2023/01/26 15:41:08;;;;;;;26.65;18.42;;;;;;;11.35;64.46;100879.25;12793956;22;96683;-81
2023/01/26 15:46:11;;;;;;;21.98;14.55;;;;;;;12.08;61.76;100865.25;12795170;22;96604;-81
2023/01/26 15:51:16;;;;;;;20.15;13.90;;;;;;;12.97;60.06;100869.81;12793547;22;96612;-82
2023/01/26 15:56:19;;;;;;;26.52;17.55;;;;;;;12.91;59.69;100871.84;12793745;22;97256;-81
2023/01/26 16:01:23;;;;;;;22.45;14.45;;;;;;;12.92;59.38;100863.84;12792446;22;96728;-81
2023/01/26 16:06:29;;;;;;;22.88;16.13;;;;;;;13.26;57.83;100851.00;12793709;22;96694;-82
2023/01/26 16:11:37;;;;;;;24.35;17.60;;;;;;;12.96;58.42;100862.81;12793896;22;96733;-80
2023/01/26 16:16:40;;;;;;;19.25;14.27;;;;;;;13.03;58.32;100872.22;12793226;22;97011;-80
2023/01/26 16:21:45;;;;;;;18.63;13.32;;;;;;;12.97;57.85;100869.81;12792999;22;97450;-80
2023/01/26 16:26:48;;;;;;;22.13;15.15;;;;;;;13.23;57.26;100859.06;12793422;22;96677;-82
2023/01/26 16:31:51;;;;;;;19.45;14.48;;;;;;;13.32;57.31;100861.31;12792832;22;96619;-82
2023/01/26 16:36:56;;;;;;;22.08;14.85;;;;;;;13.30;57.22;100864.94;12793977;22;96918;-82
2023/01/26 16:41:59;;;;;;;21.13;14.57;;;;;;;13.10;58.10;100860.47;12793043;22;96608;-82
2023/01/26 16:47:04;;;;;;;26.02;17.02;;;;;;;12.35;59.49;100874.81;12792952;22;96657;-82
2023/01/26 16:52:10;;;;;;;25.65;19.05;;;;;;;12.21;59.70;100876.22;12791863;22;96947;-82
2023/01/26 16:57:13;;;;;;;27.33;19.55;;;;;;;12.31;59.53;100864.41;12792752;22;96693;-81
2023/01/26 17:02:24;;;;;;;31.20;22.13;;;;;;;11.60;61.12;100879.31;12792443;22;96686;-81
2023/01/26 17:07:29;;;;;;;28.58;20.10;;;;;;;11.29;61.93;100890.84;12792782;22;96924;-81
2023/01/26 17:12:32;;;;;;;31.85;22.35;;;;;;;10.71;63.28;100908.47;12791481;22;96716;-81
2023/01/26 17:17:36;;;;;;;34.45;23.77;;;;;;;10.38;64.41;100904.19;12792514;22;96616;-81
2023/01/26 17:22:40;;;;;;;34.88;24.75;;;;;;;10.09;65.41;100907.66;12791946;22;96604;-81
2023/01/26 17:27:43;;;;;;;36.38;25.02;;;;;;;9.90;65.42;100909.03;12793817;22;97064;-81
2023/01/26 17:32:47;;;;;;;30.08;21.23;;;;;;;9.72;65.91;100901.63;12795314;22;96454;-81
2023/01/26 17:37:52;;;;;;;30.75;21.15;;;;;;;9.53;66.29;100910.88;12795132;22;97210;-81
2023/01/26 17:42:55;;;;;;;31.05;21.23;;;;;;;9.44;66.33;100906.72;12793968;22;96574;-81
2023/01/26 17:47:58;;;;;;;33.72;21.45;;;;;;;9.30;66.73;100908.81;12794906;22;96546;-81
2023/01/26 17:53:02;;;;;;;28.20;20.25;;;;;;;9.21;67.08;100919.50;12795130;22;96563;-81
2023/01/26 17:58:09;;;;;;;31.10;21.52;;;;;;;9.07;67.53;100932.06;12794960;22;96620;-81
2023/01/26 18:03:12;;;;;;;30.70;21.05;;;;;;;8.95;67.83;100925.34;12795602;22;96698;-81
2023/01/26 18:08:17;;;;;;;43.25;30.35;;;;;;;8.78;68.64;100935.34;12795201;22;96659;-81
2023/01/26 18:13:20;;;;;;;31.20;22.88;;;;;;;8.67;69.27;100939.09;12795110;22;96722;-81
2023/01/26 18:18:24;;;;;;;32.00;22.27;;;;;;;8.55;69.92;100948.06;12796091;22;96696;-81
2023/01/26 18:23:29;;;;;;;34.17;23.98;;;;;;;8.49;70.41;100948.22;12794270;22;96789;-81
2023/01/26 18:28:32;;;;;;;36.47;26.73;;;;;;;8.45;70.35;100956.16;12794850;22;96915;-81
2023/01/26 18:33:36;;;;;;;39.22;24.83;;;;;;;8.34;70.74;100956.34;12793265;22;96675;-81
2023/01/26 18:38:41;;;;;;;45.55;30.85;;;;;;;8.31;70.98;100973.91;12793657;22;96885;-81
2023/01/26 18:43:47;;;;;;;36.88;25.60;;;;;;;8.24;71.36;100973.16;12794564;22;96640;-80
2023/01/26 18:48:52;;;;;;;39.25;27.55;;;;;;;8.12;71.73;100977.78;12794628;22;96783;-81
2023/01/26 18:53:57;;;;;;;49.10;30.67;;;;;;;7.79;73.36;100998.44;12794861;22;96573;-81
2023/01/26 18:59:00;;;;;;;50.70;31.50;;;;;;;7.67;73.87;100996.00;12794549;22;96594;-81
2023/01/26 19:04:06;;;;;;;47.05;30.90;;;;;;;7.48;75.38;101002.44;12794308;22;96622;-81
2023/01/26 19:09:10;;;;;;;44.97;28.30;;;;;;;7.53;74.64;101004.97;12795410;22;97268;-81
2023/01/26 19:14:14;;;;;;;54.10;33.60;;;;;;;7.41;75.58;101013.88;12794109;22;96572;-81
2023/01/26 19:19:17;;;;;;;60.45;37.33;;;;;;;7.29;75.77;101016.69;12793467;22;96624;-81
2023/01/26 19:24:21;;;;;;;62.42;38.42;;;;;;;7.20;76.36;101013.34;12793222;22;97175;-81
2023/01/26 19:29:25;;;;;;;54.15;34.38;;;;;;;7.19;76.32;101014.22;12793827;22;96593;-81
2023/01/26 19:34:30;;;;;;;56.38;35.58;;;;;;;7.10;76.81;101014.31;12793940;22;96579;-81
2023/01/26 19:39:35;;;;;;;48.67;32.57;;;;;;;7.04;76.83;101003.97;12794245;22;96795;-81
2023/01/26 19:44:38;;;;;;;;;;;;;;;6.97;78.22;101010.16;12794535;22;96496;-81
2023/01/26 19:49:41;;;;;;;55.35;34.53;;;;;;;6.89;77.58;101012.84;12794004;22;96727;-81
2023/01/26 19:54:45;;;;;;;54.17;35.25;;;;;;;6.82;78.34;101005.94;12793258;22;96627;-81
2023/01/26 19:59:49;;;;;;;54.43;36.60;;;;;;;6.76;77.54;101016.50;12795008;22;96998;-81
2023/01/26 20:04:52;;;;;;;52.72;35.17;;;;;;;6.71;78.05;101026.13;12793989;22;96519;-81
2023/01/26 20:09:56;;;;;;;57.97;36.53;;;;;;;6.61;78.85;101021.91;12793443;22;96642;-81
2023/01/26 20:14:59;;;;;;;57.63;36.70;;;;;;;6.58;78.75;101029.75;12792990;22;96714;-80
2023/01/26 20:20:03;;;;;;;58.58;38.90;;;;;;;6.48;79.47;101022.91;12792737;22;96607;-81
2023/01/26 20:25:10;;;;;;;62.05;39.15;;;;;;;6.34;79.77;101023.06;12793251;22;96566;-81
2023/01/26 20:30:15;;;;;;;62.53;39.03;;;;;;;6.26;80.90;101018.78;12793058;22;96538;-81
2023/01/26 20:35:18;;;;;;;62.92;39.10;;;;;;;6.17;81.28;101024.97;12793477;22;96794;-81
2023/01/26 20:40:23;;;;;;;55.30;36.90;;;;;;;6.11;81.15;101035.47;12793380;22;97381;-81
2023/01/26 20:45:26;;;;;;;54.77;37.23;;;;;;;6.07;81.64;101025.94;12793039;22;96720;-81
2023/01/26 20:50:34;;;;;;;59.65;37.10;;;;;;;6.03;81.15;101036.44;12794187;22;96901;-81
2023/01/26 20:55:39;;;;;;;56.20;37.85;;;;;;;5.98;82.32;101046.94;12792699;22;96487;-81
2023/01/26 21:00:42;;;;;;;56.73;35.67;;;;;;;5.94;81.78;101047.81;12792667;22;96906;-81
2023/01/26 21:05:45;;;;;;;52.38;35.28;;;;;;;6.02;81.18;101046.00;12793861;22;96580;-81
2023/01/26 21:10:50;;;;;;;55.17;35.22;;;;;;;6.03;81.30;101052.09;12795381;22;96565;-81
2023/01/26 21:15:54;;;;;;;50.07;33.00;;;;;;;6.00;80.32;101055.63;12795263;22;96828;-81
2023/01/26 21:20:59;;;;;;;46.97;30.40;;;;;;;6.08;80.20;101056.41;12795054;22;96755;-81
2023/01/26 21:26:06;;;;;;;47.70;29.95;;;;;;;6.04;79.89;101054.69;12795444;22;96575;-81
2023/01/26 21:31:11;;;;;;;52.30;33.63;;;;;;;5.89;80.88;101065.28;12795278;22;96778;-81
2023/01/26 21:36:17;;;;;;;50.00;32.83;;;;;;;5.86;81.62;101067.03;12795081;22;97004;-81
2023/01/26 21:46:47;;;;;;;48.13;32.80;;;;;;;5.95;81.37;101073.09;12795148;22;96547;-81
2023/01/26 22:02:35;;;;;;;43.95;31.63;;;;;;;5.76;81.46;101084.53;12756379;22;96762;-80
2023/01/26 22:07:38;;;;;;;48.95;33.17;;;;;;;5.81;80.92;101087.09;12794863;22;96581;-81
2023/01/26 22:12:43;;;;;;;45.30;31.08;;;;;;;5.86;80.70;101080.97;12794959;22;96513;-81
2023/01/26 22:17:46;;;;;;;45.93;32.03;;;;;;;5.80;80.26;101083.63;12794336;22;96881;-81
2023/01/26 22:22:50;;;;;;;47.75;31.23;;;;;;;5.66;80.55;101088.06;12794897;22;97030;-80
2023/01/26 22:27:54;;;;;;;46.97;31.15;;;;;;;5.55;81.27;101090.75;12795059;22;96596;-81
2023/01/26 22:32:57;;;;;;;49.53;33.13;;;;;;;5.46;81.75;101085.59;12795622;22;97021;-80
2023/01/26 22:38:01;;;;;;;48.50;32.42;;;;;;;5.39;81.25;101098.69;12794525;22;96572;-81
2023/01/26 22:43:07;;;;;;;53.08;33.30;;;;;;;5.36;81.33;101099.53;12794602;22;96675;-81
2023/01/26 22:48:10;;;;;;;48.03;32.40;;;;;;;5.30;81.93;101099.59;12793174;22;97561;-80
2023/01/26 22:53:14;;;;;;;53.38;34.22;;;;;;;5.38;81.32;101113.47;12794380;22;96641;-80
2023/01/26 22:58:19;;;;;;;50.38;32.28;;;;;;;5.41;80.78;101115.19;12794313;22;96636;-80
2023/01/26 23:03:22;;;;;;;55.78;34.53;;;;;;;5.35;81.81;101118.72;12794506;22;96572;-80
2023/01/26 23:08:27;;;;;;;;;;;;;;;5.27;82.17;101122.22;12794947;22;96590;-80
2023/01/26 23:13:32;;;;;;;47.10;30.60;;;;;;;5.41;81.15;101130.84;12794035;22;96575;-80
2023/01/26 23:18:36;;;;;;;42.78;29.38;;;;;;;5.45;80.86;101135.19;12793768;22;96542;-79
2023/01/26 23:23:40;;;;;;;40.67;28.23;;;;;;;5.43;80.48;101136.94;12795092;22;96600;-80
2023/01/26 23:28:45;;;;;;;44.50;28.70;;;;;;;5.27;81.08;101132.66;12793584;22;96643;-80
2023/01/26 23:33:48;;;;;;;43.33;27.63;;;;;;;5.34;80.46;101134.38;12793620;22;96617;-80
2023/01/26 23:38:52;;;;;;;42.72;29.65;;;;;;;5.34;80.04;101139.59;12792922;22;96496;-80
2023/01/26 23:43:57;;;;;;;38.55;27.70;;;;;;;5.34;79.96;101142.19;12793834;22;96603;-80
2023/01/26 23:49:00;;;;;;;45.60;29.70;;;;;;;5.35;80.01;101142.19;12793432;22;96623;-80
2023/01/26 23:54:04;;;;;;;43.92;28.40;;;;;;;5.30;80.99;101136.13;12793873;22;96559;-80
2023/01/26 23:59:08;;;;;;;46.55;29.63;;;;;;;5.22;80.94;101131.81;12794494;22;97042;-80
